薩拉熱窩的情人與氣象局(上)

氣象人語

「是對青春小情人,眼睛多麼閃又亮,像晴天留住夏天……」

我們當中,可能部分朋友聽過這首由鄭秀文主唱的《薩拉熱窩的羅密歐與茱麗葉》,這首歌是紀念波斯尼亞內戰其間一對小情侶嘗試逃離薩拉熱窩時被槍殺,到死的時候還擁抱著對方的事。

薩拉熱窩是一個位於巴爾幹半島上,被群山環抱的小城,現在是波斯尼亞和黑塞哥維那,一般簡稱波斯尼亞的首都。它離香港約8700公里遠,現時香港沒有直航班機前往薩拉熱窩,一般需要在中東或歐洲轉機前往。

薩拉熱窩市中心附近的獅子墳場(Groblje Lav),是鄭秀文的流行曲《薩拉熱窩的羅密歐與茱麗葉》真人真事兩位主角Bato和Admira長眠之地。
薩拉熱窩市中心附近的獅子墳場(Groblje Lav),是鄭秀文的流行曲《薩拉熱窩的羅密歐與茱麗葉》真人真事兩位主角Bato和Admira長眠之地。

世界每個機場都有兩個簡稱,其中國際航空運輸協會(International Air Transport Association,簡稱IATA)較為人熟悉,即機票或行李標簽上印上的簡稱。薩拉熱窩機場的IATA 簡稱是 SJJ。另一個簡稱由國際民航組織(International Civil Aviation Organization,簡稱ICAO)制定,在機場天氣報告及預報的開頭出現。薩拉熱窩機場的ICAO 簡稱是 LQSA。當地機場天氣報告的例子:

LQSA 250400Z 11003KT 070V130 8000 -RA FEW010 BKN050 17/17 Q1012 NOSIG

薩拉熱窩機場雖然是一個國際機場,但它的規模是十分細小。下機後即進入機場大樓辦理入境手續,行李也很快送到行李輸送帶,隨即就是海關和出口。基本上,由下機到離開機場,只需花十幾分鐘就可辦妥。

提到薩拉熱窩這個名字,很多人會聯想到上世紀九十年代的內戰,也會問薩拉熱窩是不是很熱呢?根據波斯尼亞氣象部門的資料,雖然極端最高氣溫可以高於攝氏40度,但從平均數據來說,7月的平均最低和最高氣溫,分別是12.8度和25.5度,不算很熱。如果是冬天的話,氣溫經常低於攝氏0度和有雪。數據也反映到當地的日夜溫差頗大,筆者在出發前往當地之前,從天文台世界天氣網頁得知到達當日的氣溫介乎攝氏14至28度。在當地逗留其間親身感受到日間有陽光時,天氣炎熱,但早晚的時候天氣頗為清涼,要穿外套保暖。

筆者在波斯尼亞旅遊期間曾到訪位於薩拉熱窩的波斯尼亞氣象局,下篇再談。

 

圖、文:恆恆

 

 

其他內容